Time;durP1;ratioP1;P1;durP2;ratioP2;P2;SDS_P1;SDS_P2;PMS_P1;PMS_P2;Temp;Humidity;BMP_temperature;BMP_pressure;BME280_temperature;BME280_humidity;BME280_pressure;Samples;Min_cycle;Max_cycle;Signal;HPM_P1;HPM_P2
2023/09/06 00:00:45;;;;;;;6.78;3.90;;;;;;;;;;4992876;28;20498;-63
2023/09/06 00:03:12;;;;;;;6.60;3.75;;;;;;;;;;4992839;28;20031;-64
2023/09/06 00:05:41;;;;;;;7.95;3.80;;;;;;;;;;4992677;28;20105;-63
2023/09/06 00:08:08;;;;;;;6.22;3.90;;;;;;;;;;4992880;28;20045;-64
2023/09/06 00:10:38;;;;;;;5.82;3.55;;;;;;;;;;4992550;28;20023;-63
2023/09/06 00:13:06;;;;;;;8.38;3.92;;;;;;;;;;4992891;28;20026;-62
2023/09/06 00:15:31;;;;;;;6.32;3.78;;;;;;;;;;4994284;28;20034;-63
2023/09/06 00:17:57;;;;;;;7.05;4.05;;;;;;;;;;4996280;28;20061;-63
2023/09/06 00:20:25;;;;;;;6.85;3.97;;;;;;;;;;4989875;28;20089;-62
2023/09/06 00:22:56;;;;;;;6.68;3.95;;;;;;;;;;5006751;28;20468;-62
2023/09/06 00:25:21;;;;;;;7.55;3.42;;;;;;;;;;4995898;28;20372;-62
2023/09/06 00:27:47;;;;;;;7.47;3.53;;;;;;;;;;4996069;28;20103;-62
2023/09/06 00:30:12;;;;;;;8.05;3.67;;;;;;;;;;4994693;28;20087;-62
2023/09/06 00:32:38;;;;;;;7.47;3.80;;;;;;;;;;4996009;28;20054;-62
2023/09/06 00:35:04;;;;;;;7.53;3.70;;;;;;;;;;4995893;28;20031;-62
2023/09/06 00:37:37;;;;;;;4.90;3.40;;;;;;;;;;4995831;28;20065;-62
2023/09/06 00:40:12;;;;;;;6.85;3.60;;;;;;;;;;4995622;28;20031;-62
2023/09/06 00:42:37;;;;;;;7.55;3.38;;;;;;;;;;4995893;28;20027;-63
2023/09/06 00:45:03;;;;;;;6.75;3.30;;;;;;;;;;4995649;28;20077;-62
2023/09/06 00:47:29;;;;;;;5.53;3.40;;;;;;;;;;4995806;28;20109;-62
2023/09/06 00:49:55;;;;;;;6.55;3.58;;;;;;;;;;4995813;28;20029;-63
2023/09/06 00:52:21;;;;;;;5.43;3.50;;;;;;;;;;4995693;28;20027;-62
2023/09/06 00:54:47;;;;;;;6.97;3.33;;;;;;;;;;4995333;28;20030;-64
2023/09/06 00:57:12;;;;;;;6.55;3.80;;;;;;;;;;4995598;28;20104;-63
2023/09/06 00:59:39;;;;;;;6.80;3.80;;;;;;;;;;4995420;28;20030;-63
2023/09/06 01:02:05;;;;;;;6.97;3.60;;;;;;;;;;4995482;28;20041;-62
2023/09/06 01:04:30;;;;;;;6.35;3.38;;;;;;;;;;4995309;28;20097;-64
2023/09/06 01:07:00;;;;;;;5.50;3.33;;;;;;;;;;4995366;28;20061;-63
2023/09/06 01:09:29;;;;;;;6.47;3.67;;;;;;;;;;4995168;28;20031;-62
2023/09/06 01:11:54;;;;;;;5.75;3.78;;;;;;;;;;4995291;28;20056;-63
2023/09/06 01:14:20;;;;;;;5.70;3.35;;;;;;;;;;4993902;28;20046;-62
2023/09/06 01:16:48;;;;;;;8.52;3.70;;;;;;;;;;4995093;28;20031;-62
2023/09/06 01:19:15;;;;;;;5.85;3.63;;;;;;;;;;4994935;28;20460;-63
2023/09/06 01:21:57;;;;;;;5.47;3.63;;;;;;;;;;4999308;28;20049;-63
2023/09/06 01:24:24;;;;;;;4.00;2.90;;;;;;;;;;4975600;28;20038;-62
2023/09/06 01:26:50;;;;;;;5.38;3.70;;;;;;;;;;4973910;28;20030;-63
2023/09/06 01:29:17;;;;;;;9.15;3.63;;;;;;;;;;4974293;28;20035;-62
2023/09/06 01:31:43;;;;;;;7.03;3.63;;;;;;;;;;4975587;28;20389;-62
2023/09/06 01:34:08;;;;;;;6.75;3.55;;;;;;;;;;4975464;28;20022;-66
2023/09/06 01:36:34;;;;;;;6.18;3.47;;;;;;;;;;4975215;28;20465;-62
2023/09/06 01:38:59;;;;;;;5.72;3.55;;;;;;;;;;4975161;28;20027;-62
2023/09/06 01:41:24;;;;;;;5.95;3.70;;;;;;;;;;4975322;28;20119;-63
2023/09/06 01:43:54;;;;;;;7.53;3.58;;;;;;;;;;4975280;28;20018;-63
2023/09/06 01:46:20;;;;;;;5.50;3.90;;;;;;;;;;4975328;28;20039;-63
2023/09/06 01:48:46;;;;;;;5.00;3.50;;;;;;;;;;4975153;28;20026;-62
2023/09/06 01:51:13;;;;;;;6.93;3.72;;;;;;;;;;4974838;28;20023;-65
2023/09/06 01:53:38;;;;;;;5.20;3.72;;;;;;;;;;4974993;28;20052;-64
2023/09/06 01:56:04;;;;;;;5.10;3.47;;;;;;;;;;4975112;28;20030;-63
2023/09/06 01:58:33;;;;;;;8.07;4.05;;;;;;;;;;4974947;28;20026;-63
2023/09/06 02:01:00;;;;;;;4.75;3.33;;;;;;;;;;4974907;28;20023;-67
2023/09/06 02:03:27;;;;;;;5.68;3.28;;;;;;;;;;4974802;28;20031;-67
2023/09/06 02:05:52;;;;;;;7.30;3.63;;;;;;;;;;4994058;28;20449;-67
2023/09/06 02:08:18;;;;;;;7.18;3.65;;;;;;;;;;4994234;28;20153;-68
2023/09/06 02:10:44;;;;;;;4.15;3.22;;;;;;;;;;4994049;28;20414;-68
2023/09/06 02:13:10;;;;;;;6.30;3.67;;;;;;;;;;4994077;28;20026;-68
2023/09/06 02:15:35;;;;;;;5.03;3.50;;;;;;;;;;4993972;28;20030;-67
2023/09/06 02:18:02;;;;;;;6.03;3.50;;;;;;;;;;4994060;28;20042;-66
2023/09/06 02:20:28;;;;;;;6.68;3.72;;;;;;;;;;4988321;28;20041;-67
2023/09/06 02:22:57;;;;;;;5.45;3.60;;;;;;;;;;5004153;28;20038;-64
2023/09/06 02:25:30;;;;;;;6.22;3.78;;;;;;;;;;4993838;28;20027;-68
2023/09/06 02:28:05;;;;;;;6.20;3.75;;;;;;;;;;4993761;28;20483;-67
2023/09/06 02:30:37;;;;;;;6.18;3.63;;;;;;;;;;4993985;28;20387;-67
2023/09/06 02:33:04;;;;;;;4.93;3.45;;;;;;;;;;4993840;28;20026;-68
2023/09/06 02:35:29;;;;;;;9.35;4.57;;;;;;;;;;4993450;28;20034;-68
2023/09/06 02:37:55;;;;;;;6.07;3.60;;;;;;;;;;4992861;28;20033;-67
2023/09/06 02:40:20;;;;;;;6.65;3.63;;;;;;;;;;4993694;28;20101;-67
2023/09/06 02:42:48;;;;;;;5.85;3.45;;;;;;;;;;4993673;28;20054;-68
2023/09/06 02:45:14;;;;;;;6.75;3.97;;;;;;;;;;4993528;28;20034;-68
2023/09/06 02:47:47;;;;;;;9.75;3.90;;;;;;;;;;4993717;28;20078;-67
2023/09/06 02:50:14;;;;;;;7.65;3.72;;;;;;;;;;4993278;28;20372;-68
2023/09/06 02:52:44;;;;;;;12.57;4.00;;;;;;;;;;4993381;28;20486;-66
2023/09/06 02:55:13;;;;;;;6.32;3.83;;;;;;;;;;4993407;28;20029;-68
2023/09/06 02:57:40;;;;;;;5.45;3.78;;;;;;;;;;4993349;28;20030;-65
2023/09/06 03:00:25;;;;;;;9.13;4.85;;;;;;;;;;4993466;28;20391;-68
2023/09/06 03:02:55;;;;;;;20.63;10.88;;;;;;;;;;4993416;28;20049;-67
2023/09/06 03:05:21;;;;;;;10.15;7.43;;;;;;;;;;4992823;28;20019;-62
2023/09/06 03:07:53;;;;;;;7.95;4.38;;;;;;;;;;4993492;28;20495;-64
2023/09/06 03:10:20;;;;;;;7.35;4.05;;;;;;;;;;4993268;28;20030;-64
2023/09/06 03:12:56;;;;;;;7.05;4.10;;;;;;;;;;4993171;28;20029;-67
2023/09/06 03:15:28;;;;;;;8.30;3.67;;;;;;;;;;4991999;28;20387;-67
2023/09/06 03:17:54;;;;;;;5.13;3.92;;;;;;;;;;4993130;28;20035;-64
2023/09/06 03:20:31;;;;;;;7.47;3.92;;;;;;;;;;4986533;28;20042;-66
2023/09/06 03:22:59;;;;;;;6.07;3.92;;;;;;;;;;5002867;28;20051;-63
2023/09/06 03:25:26;;;;;;;7.50;4.13;;;;;;;;;;4992897;28;20115;-62
2023/09/06 03:27:59;;;;;;;8.75;4.80;;;;;;;;;;4993200;28;20415;-63
2023/09/06 03:30:29;;;;;;;7.68;4.00;;;;;;;;;;4993067;28;20038;-62
2023/09/06 03:32:55;;;;;;;11.18;4.30;;;;;;;;;;4992820;28;20026;-65
2023/09/06 03:35:22;;;;;;;9.20;3.85;;;;;;;;;;4993157;28;20387;-64
2023/09/06 03:37:49;;;;;;;8.73;3.75;;;;;;;;;;4991717;28;20451;-62
2023/09/06 03:40:36;;;;;;;8.40;4.10;;;;;;;;;;4992871;28;20093;-62
2023/09/06 03:43:04;;;;;;;10.55;4.10;;;;;;;;;;4993016;28;20035;-63
2023/09/06 03:45:30;;;;;;;10.10;3.70;;;;;;;;;;4992873;28;20119;-66
2023/09/06 03:47:57;;;;;;;9.10;4.20;;;;;;;;;;4992880;28;20452;-62
2023/09/06 03:50:23;;;;;;;12.73;5.60;;;;;;;;;;4996137;28;20357;-62
2023/09/06 03:52:50;;;;;;;10.65;5.50;;;;;;;;;;4996577;28;20472;-65
2023/09/06 03:55:16;;;;;;;16.05;5.95;;;;;;;;;;4996614;28;20035;-62
2023/09/06 03:57:42;;;;;;;11.15;4.53;;;;;;;;;;4996628;28;20543;-64
2023/09/06 04:00:30;;;;;;;10.30;4.30;;;;;;;;;;4996463;28;20030;-63
2023/09/06 04:02:56;;;;;;;11.32;3.97;;;;;;;;;;5007357;28;20064;-62
2023/09/06 04:05:25;;;;;;;7.38;4.30;;;;;;;;;;5000480;28;20089;-62
2023/09/06 04:08:03;;;;;;;11.07;4.38;;;;;;;;;;4996621;28;20385;-64
2023/09/06 04:10:40;;;;;;;8.98;4.00;;;;;;;;;;4996464;28;20034;-63
2023/09/06 04:13:07;;;;;;;7.88;4.03;;;;;;;;;;4996356;28;20041;-63
2023/09/06 04:15:37;;;;;;;10.07;3.90;;;;;;;;;;4996334;28;20015;-66
2023/09/06 04:18:04;;;;;;;12.45;4.35;;;;;;;;;;4996301;28;20110;-62
2023/09/06 04:20:35;;;;;;;7.63;3.80;;;;;;;;;;4990888;28;20069;-63
2023/09/06 04:23:01;;;;;;;;;;;;;;;;;;5004532;28;20526;-62
2023/09/06 04:25:27;;;;;;;6.85;3.72;;;;;;;;;;4994593;28;19963;-62
2023/09/06 04:27:55;;;;;;;11.60;4.20;;;;;;;;;;4996000;28;20027;-62
2023/09/06 04:30:24;;;;;;;13.15;4.18;;;;;;;;;;4996005;28;20044;-62
2023/09/06 04:32:52;;;;;;;8.48;4.13;;;;;;;;;;4996032;28;20022;-65
2023/09/06 04:35:18;;;;;;;8.30;4.65;;;;;;;;;;4995804;28;20096;-62
2023/09/06 04:37:44;;;;;;;11.73;4.53;;;;;;;;;;4995837;28;20026;-63
2023/09/06 04:40:11;;;;;;;11.18;5.57;;;;;;;;;;4994635;28;20141;-63
2023/09/06 04:42:39;;;;;;;6.63;4.45;;;;;;;;;;4995769;28;20034;-67
2023/09/06 04:45:06;;;;;;;7.28;4.00;;;;;;;;;;4995517;28;20423;-66
2023/09/06 04:47:31;;;;;;;7.55;4.20;;;;;;;;;;4995686;28;20491;-64
2023/09/06 04:49:58;;;;;;;10.77;4.50;;;;;;;;;;4995791;28;20222;-67
2023/09/06 04:52:26;;;;;;;9.57;4.50;;;;;;;;;;4995387;28;20137;-68
2023/09/06 04:54:52;;;;;;;7.88;4.35;;;;;;;;;;4995476;28;20049;-64
2023/09/06 04:57:17;;;;;;;9.20;4.50;;;;;;;;;;4995715;28;20471;-65
2023/09/06 04:59:43;;;;;;;9.77;4.50;;;;;;;;;;4995558;28;20026;-67
2023/09/06 05:02:09;;;;;;;8.82;5.00;;;;;;;;;;4994362;28;20026;-65
2023/09/06 05:04:36;;;;;;;11.25;4.95;;;;;;;;;;4995200;28;20117;-64
2023/09/06 05:07:03;;;;;;;11.45;4.90;;;;;;;;;;4995321;28;20026;-66
2023/09/06 05:09:28;;;;;;;17.38;5.18;;;;;;;;;;4995090;28;20034;-68
2023/09/06 05:11:53;;;;;;;11.52;5.13;;;;;;;;;;4995344;28;20491;-68
2023/09/06 05:14:19;;;;;;;9.38;4.85;;;;;;;;;;4994950;28;20042;-66
2023/09/06 05:16:44;;;;;;;7.57;4.68;;;;;;;;;;4994840;28;20026;-66
2023/09/06 05:19:10;;;;;;;14.65;4.63;;;;;;;;;;4994903;28;20062;-65
2023/09/06 05:21:35;;;;;;;9.02;5.20;;;;;;;;;;4998703;28;20037;-63
2023/09/06 05:24:01;;;;;;;9.73;4.97;;;;;;;;;;4995850;28;20030;-66
2023/09/06 05:26:26;;;;;;;9.15;4.80;;;;;;;;;;4994811;28;20065;-65
2023/09/06 05:28:51;;;;;;;8.90;5.00;;;;;;;;;;4994782;28;20050;-67
2023/09/06 05:31:20;;;;;;;10.35;5.93;;;;;;;;;;4994973;28;20121;-62
2023/09/06 05:33:45;;;;;;;8.02;4.50;;;;;;;;;;4994833;28;20033;-62
2023/09/06 05:36:10;;;;;;;7.82;5.05;;;;;;;;;;4994644;28;20026;-62
2023/09/06 05:38:36;;;;;;;9.40;4.90;;;;;;;;;;4994561;28;20031;-62
2023/09/06 05:41:02;;;;;;;10.23;4.75;;;;;;;;;;4994499;28;20041;-64
2023/09/06 05:43:27;;;;;;;10.10;4.60;;;;;;;;;;4994448;28;20113;-62
2023/09/06 05:45:53;;;;;;;8.43;4.28;;;;;;;;;;4999101;28;20113;-62
2023/09/06 05:48:18;;;;;;;11.10;4.63;;;;;;;;;;5014301;28;20053;-64
2023/09/06 05:50:44;;;;;;;7.50;4.60;;;;;;;;;;5013930;28;20034;-62
2023/09/06 05:53:09;;;;;;;10.73;4.88;;;;;;;;;;5014085;28;20030;-62
2023/09/06 05:55:35;;;;;;;9.65;4.57;;;;;;;;;;5014236;28;20033;-63
2023/09/06 05:58:00;;;;;;;8.73;4.50;;;;;;;;;;5013997;28;20036;-66
2023/09/06 06:00:28;;;;;;;12.88;4.40;;;;;;;;;;5012896;28;20026;-68
2023/09/06 06:02:55;;;;;;;10.07;4.85;;;;;;;;;;4994223;28;20030;-67
2023/09/06 06:05:21;;;;;;;7.35;4.35;;;;;;;;;;4994002;28;20480;-67
2023/09/06 06:07:47;;;;;;;6.38;4.68;;;;;;;;;;4994165;28;20041;-66
2023/09/06 06:10:12;;;;;;;11.38;4.82;;;;;;;;;;4994048;28;20045;-67
2023/09/06 06:12:39;;;;;;;9.27;4.97;;;;;;;;;;4984784;28;20506;-67
2023/09/06 06:15:09;;;;;;;7.78;4.35;;;;;;;;;;4973330;28;20051;-68
2023/09/06 06:17:35;;;;;;;7.75;4.43;;;;;;;;;;4989137;28;20072;-68
2023/09/06 06:20:01;;;;;;;12.13;5.00;;;;;;;;;;4978631;28;20034;-68
2023/09/06 06:22:27;;;;;;;7.22;4.38;;;;;;;;;;4991789;28;20117;-67
2023/09/06 06:24:52;;;;;;;8.52;4.80;;;;;;;;;;4993618;28;20104;-67
2023/09/06 06:27:18;;;;;;;9.15;4.28;;;;;;;;;;4993508;28;20365;-68
2023/09/06 06:29:43;;;;;;;8.68;4.55;;;;;;;;;;4983179;28;20027;-67
2023/09/06 06:32:09;;;;;;;7.50;4.70;;;;;;;;;;4973947;28;20121;-67
2023/09/06 06:34:38;;;;;;;10.23;4.57;;;;;;;;;;4972878;28;20041;-68
2023/09/06 06:37:04;;;;;;;7.07;4.10;;;;;;;;;;4973728;28;20046;-67
2023/09/06 06:39:30;;;;;;;8.98;4.25;;;;;;;;;;4973940;28;20030;-68
2023/09/06 06:41:55;;;;;;;8.02;4.03;;;;;;;;;;4973831;28;20043;-69
2023/09/06 06:44:21;;;;;;;9.68;4.40;;;;;;;;;;4973944;28;20027;-69
2023/09/06 06:46:46;;;;;;;11.32;4.22;;;;;;;;;;4983505;28;20037;-65
2023/09/06 06:49:11;;;;;;;12.82;4.03;;;;;;;;;;4993289;28;20022;-68
2023/09/06 06:51:39;;;;;;;9.45;3.85;;;;;;;;;;4993011;28;20109;-63
2023/09/06 06:54:06;;;;;;;10.48;3.85;;;;;;;;;;4993134;28;20046;-64
2023/09/06 06:56:32;;;;;;;8.13;3.90;;;;;;;;;;4993024;28;20031;-65
2023/09/06 06:58:57;;;;;;;11.07;4.20;;;;;;;;;;4993156;28;20029;-64
2023/09/06 07:01:24;;;;;;;10.68;3.88;;;;;;;;;;4992727;28;20482;-66
2023/09/06 07:03:50;;;;;;;106.55;19.55;;;;;;;;;;4992921;28;20033;-63
2023/09/06 07:06:15;;;;;;;13.93;4.60;;;;;;;;;;4993211;28;20475;-68
2023/09/06 07:08:41;;;;;;;11.80;4.00;;;;;;;;;;4974234;28;20085;-67
2023/09/06 07:11:07;;;;;;;10.85;4.22;;;;;;;;;;4973460;28;20018;-63
2023/09/06 07:13:33;;;;;;;9.70;4.20;;;;;;;;;;4973513;28;20074;-63
2023/09/06 07:15:59;;;;;;;10.88;3.75;;;;;;;;;;4991323;28;20439;-61
2023/09/06 07:18:24;;;;;;;13.98;4.00;;;;;;;;;;4992708;28;20018;-64
2023/09/06 07:20:50;;;;;;;11.70;3.90;;;;;;;;;;4983538;28;20446;-64
2023/09/06 07:23:15;;;;;;;11.45;4.13;;;;;;;;;;4973480;28;20037;-65
2023/09/06 07:25:46;;;;;;;44.30;11.77;;;;;;;;;;4977145;28;20023;-62
2023/09/06 07:28:11;;;;;;;7.20;3.30;;;;;;;;;;4977350;28;20425;-62
2023/09/06 07:30:37;;;;;;;8.60;3.65;;;;;;;;;;4977453;28;20093;-61
2023/09/06 07:33:03;;;;;;;19.85;6.60;;;;;;;;;;4977503;28;20026;-61
2023/09/06 07:35:28;;;;;;;10.85;4.00;;;;;;;;;;4977423;28;20524;-61
2023/09/06 07:37:54;;;;;;;12.02;4.57;;;;;;;;;;4977340;28;20388;-61
2023/09/06 07:40:20;;;;;;;26.75;8.02;;;;;;;;;;4977050;28;20061;-63
2023/09/06 07:42:45;;;;;;;12.65;5.35;;;;;;;;;;4977135;28;20138;-64
2023/09/06 07:45:11;;;;;;;14.50;4.78;;;;;;;;;;4977264;28;20026;-63
2023/09/06 07:47:36;;;;;;;17.55;5.70;;;;;;;;;;4976980;28;20113;-63
2023/09/06 07:50:05;;;;;;;8.50;3.78;;;;;;;;;;4977169;28;20042;-63
2023/09/06 07:52:30;;;;;;;8.83;4.27;;;;;;;;;;4977189;28;20111;-64
2023/09/06 07:54:56;;;;;;;16.08;3.83;;;;;;;;;;4976921;28;20484;-64
2023/09/06 07:57:21;;;;;;;7.88;3.50;;;;;;;;;;4976979;28;20023;-62
2023/09/06 07:59:46;;;;;;;12.48;4.53;;;;;;;;;;4976928;28;20034;-61
2023/09/06 08:02:12;;;;;;;9.43;4.53;;;;;;;;;;4976956;28;20357;-64
2023/09/06 08:04:37;;;;;;;9.60;3.78;;;;;;;;;;4986132;28;20474;-62
2023/09/06 08:07:03;;;;;;;13.00;3.40;;;;;;;;;;4990416;28;20039;-63
2023/09/06 08:09:29;;;;;;;9.88;4.00;;;;;;;;;;4976529;28;20023;-62
2023/09/06 08:11:54;;;;;;;13.52;3.72;;;;;;;;;;4976713;28;20034;-63
2023/09/06 08:14:20;;;;;;;14.52;3.72;;;;;;;;;;4981540;28;20383;-63
2023/09/06 08:16:45;;;;;;;9.25;3.53;;;;;;;;;;4996175;28;20041;-62
2023/09/06 08:19:10;;;;;;;7.70;3.08;;;;;;;;;;4995985;28;20046;-63
2023/09/06 08:21:37;;;;;;;13.98;4.07;;;;;;;;;;4980323;28;20034;-64
2023/09/06 08:24:03;;;;;;;13.43;3.50;;;;;;;;;;4976257;28;20023;-62
2023/09/06 08:26:29;;;;;;;17.02;3.78;;;;;;;;;;4976460;28;20055;-63
2023/09/06 08:28:54;;;;;;;8.55;4.20;;;;;;;;;;4976560;28;20073;-63
2023/09/06 08:31:20;;;;;;;7.13;4.05;;;;;;;;;;4976492;28;20030;-62
2023/09/06 08:33:46;;;;;;;6.55;3.00;;;;;;;;;;4976342;28;20388;-62
2023/09/06 08:36:11;;;;;;;11.35;3.95;;;;;;;;;;4975140;28;20476;-62
2023/09/06 08:38:39;;;;;;;6.80;4.25;;;;;;;;;;4976232;28;20031;-62
2023/09/06 08:41:04;;;;;;;7.30;3.97;;;;;;;;;;4976308;28;20035;-62
2023/09/06 08:43:41;;;;;;;8.63;4.35;;;;;;;;;;4978325;28;20041;-63
2023/09/06 08:46:25;;;;;;;12.10;3.90;;;;;;;;;;4984585;28;20027;-62
2023/09/06 08:48:52;;;;;;;9.25;4.40;;;;;;;;;;4989337;28;20034;-63
2023/09/06 08:51:20;;;;;;;7.95;3.83;;;;;;;;;;4994989;28;20045;-61
2023/09/06 08:53:47;;;;;;;8.52;4.35;;;;;;;;;;4976171;28;20169;-62
2023/09/06 08:56:15;;;;;;;9.35;4.30;;;;;;;;;;4974149;28;20092;-62
2023/09/06 08:58:41;;;;;;;6.40;3.88;;;;;;;;;;4973933;28;20035;-61
2023/09/06 09:01:07;;;;;;;6.13;3.88;;;;;;;;;;4973794;28;20134;-61
2023/09/06 09:03:33;;;;;;;9.20;3.80;;;;;;;;;;4974005;28;20106;-62
2023/09/06 09:06:00;;;;;;;7.18;3.80;;;;;;;;;;4993051;28;20050;-61
2023/09/06 09:08:29;;;;;;;7.53;4.05;;;;;;;;;;4992976;28;20037;-63
2023/09/06 09:11:26;;;;;;;9.38;4.00;;;;;;;;;;4991895;28;20427;-62
2023/09/06 09:13:52;;;;;;;8.25;4.20;;;;;;;;;;4933825;29;20044;-63
2023/09/06 09:16:17;;;;;;;8.55;3.70;;;;;;;;;;4926927;29;20515;-61
2023/09/06 09:18:45;;;;;;;9.30;4.10;;;;;;;;;;4926640;29;20624;-63
2023/09/06 09:21:12;;;;;;;8.18;4.10;;;;;;;;;;4932007;29;20043;-61
2023/09/06 09:23:55;;;;;;;5.40;3.75;;;;;;;;;;4922320;29;20494;-62
2023/09/06 09:26:21;;;;;;;8.95;3.50;;;;;;;;;;4914464;29;20047;-66
2023/09/06 09:28:48;;;;;;;4.90;3.53;;;;;;;;;;4930638;29;20070;-61
2023/09/06 09:31:15;;;;;;;6.15;3.42;;;;;;;;;;4930863;29;20043;-62
2023/09/06 09:33:44;;;;;;;7.65;3.50;;;;;;;;;;4931500;29;20028;-61
2023/09/06 09:36:10;;;;;;;7.13;3.50;;;;;;;;;;4931466;29;20375;-61
2023/09/06 09:38:41;;;;;;;7.90;3.58;;;;;;;;;;4931999;29;20028;-62
2023/09/06 09:41:08;;;;;;;6.72;3.20;;;;;;;;;;4932134;29;20110;-62
2023/09/06 09:43:35;;;;;;;5.65;3.30;;;;;;;;;;4932077;29;20031;-63
2023/09/06 09:46:01;;;;;;;5.25;2.70;;;;;;;;;;4925726;29;20043;-62
2023/09/06 09:48:31;;;;;;;6.72;3.10;;;;;;;;;;4917404;28;20046;-62
2023/09/06 09:50:57;;;;;;;7.03;3.10;;;;;;;;;;4972678;28;20027;-63
2023/09/06 09:53:23;;;;;;;4.00;2.38;;;;;;;;;;4990626;28;20145;-62
2023/09/06 09:55:53;;;;;;;4.10;2.70;;;;;;;;;;4992425;28;20026;-66
2023/09/06 09:58:19;;;;;;;4.05;2.40;;;;;;;;;;4991039;28;20410;-66
2023/09/06 10:00:46;;;;;;;6.80;2.83;;;;;;;;;;4992017;28;20053;-66
2023/09/06 10:03:13;;;;;;;5.40;2.22;;;;;;;;;;4992108;28;20468;-66
2023/09/06 10:05:40;;;;;;;2.92;2.15;;;;;;;;;;4987889;28;20557;-66
2023/09/06 10:08:11;;;;;;;3.92;2.13;;;;;;;;;;4978315;28;20037;-66
2023/09/06 10:10:40;;;;;;;3.28;2.08;;;;;;;;;;4974608;28;20460;-67
2023/09/06 10:13:09;;;;;;;5.85;1.92;;;;;;;;;;4988035;28;20026;-66
2023/09/06 10:15:36;;;;;;;3.03;1.80;;;;;;;;;;4985027;28;20383;-66
2023/09/06 10:18:03;;;;;;;7.45;2.10;;;;;;;;;;4993887;28;20272;-64
2023/09/06 10:20:32;;;;;;;3.53;1.60;;;;;;;;;;4993306;28;20388;-66
2023/09/06 10:22:59;;;;;;;3.03;1.60;;;;;;;;;;4993725;28;20030;-64
2023/09/06 10:25:25;;;;;;;4.07;1.55;;;;;;;;;;4978711;28;20030;-67
2023/09/06 10:27:59;;;;;;;2.33;1.67;;;;;;;;;;4974356;28;20027;-68
2023/09/06 10:30:34;;;;;;;4.57;1.50;;;;;;;;;;4974329;28;20030;-66
2023/09/06 10:33:03;;;;;;;2.95;1.58;;;;;;;;;;4972698;28;20034;-66
2023/09/06 10:35:32;;;;;;;2.75;1.27;;;;;;;;;;4974154;28;20110;-66
2023/09/06 10:38:18;;;;;;;;;;;;;;;;;;4974380;28;20062;-66
2023/09/06 10:40:53;;;;;;;3.58;1.77;;;;;;;;;;4974151;28;20287;-66
2023/09/06 10:43:28;;;;;;;3.33;1.60;;;;;;;;;;4973945;28;20427;-66
2023/09/06 10:46:13;;;;;;;4.00;1.60;;;;;;;;;;4974125;28;20046;-65
2023/09/06 10:48:39;;;;;;;4.75;1.40;;;;;;;;;;4963218;28;20045;-67
2023/09/06 10:51:09;;;;;;;1.92;1.20;;;;;;;;;;4973621;28;20035;-67
2023/09/06 10:53:36;;;;;;;5.57;2.05;;;;;;;;;;4973800;28;20034;-63
2023/09/06 10:56:02;;;;;;;5.70;1.55;;;;;;;;;;4973832;28;20077;-66
2023/09/06 10:58:32;;;;;;;4.90;2.05;;;;;;;;;;4973344;28;20031;-66
2023/09/06 11:01:13;;;;;;;3.53;1.60;;;;;;;;;;4980616;28;20372;-67
2023/09/06 11:03:41;;;;;;;3.08;1.50;;;;;;;;;;4991077;28;20037;-66
2023/09/06 11:06:07;;;;;;;3.40;1.52;;;;;;;;;;4973564;28;20105;-65
2023/09/06 11:08:33;;;;;;;4.97;1.40;;;;;;;;;;4978399;28;20022;-62
2023/09/06 11:11:05;;;;;;;4.95;1.67;;;;;;;;;;4993053;28;20057;-66
2023/09/06 11:13:32;;;;;;;6.25;1.60;;;;;;;;;;4993111;28;20451;-62
2023/09/06 11:15:59;;;;;;;3.65;1.45;;;;;;;;;;4993152;28;20357;-64
2023/09/06 11:18:26;;;;;;;4.25;1.58;;;;;;;;;;4992770;28;20356;-62
2023/09/06 11:20:52;;;;;;;5.25;1.70;;;;;;;;;;4991716;28;20365;-62
2023/09/06 11:23:17;;;;;;;5.75;1.80;;;;;;;;;;4992794;28;20085;-63
2023/09/06 11:25:44;;;;;;;4.65;1.90;;;;;;;;;;4992952;28;20081;-63
2023/09/06 11:28:20;;;;;;;3.50;1.50;;;;;;;;;;4993075;28;20395;-62
2023/09/06 11:30:47;;;;;;;4.03;1.50;;;;;;;;;;4992619;28;20031;-63
2023/09/06 11:33:15;;;;;;;3.70;1.80;;;;;;;;;;4992794;28;20041;-61
2023/09/06 11:35:51;;;;;;;4.00;2.00;;;;;;;;;;4992811;28;20034;-66
2023/09/06 11:38:20;;;;;;;2.17;1.60;;;;;;;;;;4993005;28;20038;-64
2023/09/06 11:40:46;;;;;;;3.65;1.58;;;;;;;;;;4992884;28;20034;-63
2023/09/06 11:43:13;;;;;;;2.92;1.80;;;;;;;;;;4992722;28;20027;-63
2023/09/06 11:45:43;;;;;;;4.53;2.20;;;;;;;;;;4992495;28;20057;-62
2023/09/06 11:48:09;;;;;;;8.77;2.17;;;;;;;;;;4992683;28;20394;-62
2023/09/06 11:50:42;;;;;;;3.10;1.63;;;;;;;;;;4992797;28;20120;-63
2023/09/06 11:53:09;;;;;;;3.38;1.52;;;;;;;;;;4992510;28;20073;-62
2023/09/06 11:55:39;;;;;;;3.92;1.50;;;;;;;;;;4992405;28;20037;-62
2023/09/06 11:58:05;;;;;;;;;;;;;;;;;;4993177;28;20210;-63
2023/09/06 12:00:45;;;;;;;1.90;1.30;;;;;;;;;;4989307;28;20043;-63
2023/09/06 12:03:27;;;;;;;2.67;1.15;;;;;;;;;;4973481;28;20031;-62
2023/09/06 12:05:56;;;;;;;3.47;1.45;;;;;;;;;;4992792;28;20031;-64
2023/09/06 12:08:23;;;;;;;2.60;1.70;;;;;;;;;;4992627;28;20476;-61
2023/09/06 12:10:58;;;;;;;4.55;1.70;;;;;;;;;;4994577;28;20022;-62
2023/09/06 12:13:31;;;;;;;3.53;1.80;;;;;;;;;;5003939;28;20033;-61
2023/09/06 12:15:57;;;;;;;4.10;1.50;;;;;;;;;;5015661;28;20153;-63
2023/09/06 12:18:27;;;;;;;3.30;1.40;;;;;;;;;;5015532;28;20483;-64
2023/09/06 12:20:53;;;;;;;4.85;2.03;;;;;;;;;;5003160;28;20116;-62
2023/09/06 12:23:22;;;;;;;4.95;1.95;;;;;;;;;;4996001;28;20098;-64
2023/09/06 12:25:47;;;;;;;3.73;1.73;;;;;;;;;;4996177;28;20153;-62
2023/09/06 12:28:13;;;;;;;3.05;1.80;;;;;;;;;;4996139;28;20120;-62
2023/09/06 12:30:39;;;;;;;6.22;2.10;;;;;;;;;;4995530;28;20460;-62
2023/09/06 12:33:04;;;;;;;4.40;1.95;;;;;;;;;;4995821;28;20030;-62
2023/09/06 12:35:35;;;;;;;5.25;1.77;;;;;;;;;;4995937;28;20027;-62
2023/09/06 12:38:01;;;;;;;5.57;1.60;;;;;;;;;;4995759;28;20491;-62
2023/09/06 12:40:28;;;;;;;4.72;1.90;;;;;;;;;;4995810;28;20022;-62
2023/09/06 12:42:54;;;;;;;4.18;1.95;;;;;;;;;;4995512;28;20030;-65
2023/09/06 12:45:30;;;;;;;4.45;1.90;;;;;;;;;;4995298;28;20360;-65
2023/09/06 12:47:59;;;;;;;3.28;2.00;;;;;;;;;;4995643;28;20049;-63
2023/09/06 12:50:26;;;;;;;6.30;1.95;;;;;;;;;;4995344;28;20101;-61
2023/09/06 12:52:52;;;;;;;4.90;2.20;;;;;;;;;;4995215;28;20137;-63
2023/09/06 12:55:18;;;;;;;3.53;2.15;;;;;;;;;;4995311;28;20026;-63
2023/09/06 12:57:43;;;;;;;3.47;2.05;;;;;;;;;;5003317;28;20034;-63
2023/09/06 13:00:10;;;;;;;7.38;2.17;;;;;;;;;;5004682;28;20076;-61
2023/09/06 13:02:36;;;;;;;5.53;2.17;;;;;;;;;;4995240;28;20133;-62
2023/09/06 13:05:03;;;;;;;4.57;2.38;;;;;;;;;;4982593;28;20502;-65
2023/09/06 13:07:29;;;;;;;4.65;2.17;;;;;;;;;;4975877;28;20035;-64
2023/09/06 13:09:54;;;;;;;4.85;2.40;;;;;;;;;;4991423;28;20041;-62
2023/09/06 13:12:21;;;;;;;3.30;1.67;;;;;;;;;;4994299;28;20105;-62
2023/09/06 13:14:47;;;;;;;5.22;1.83;;;;;;;;;;4995194;28;20036;-65
2023/09/06 13:17:12;;;;;;;5.60;1.67;;;;;;;;;;4995249;28;20379;-62
2023/09/06 13:19:41;;;;;;;2.95;1.73;;;;;;;;;;4994641;28;20053;-65
2023/09/06 13:22:07;;;;;;;3.95;1.60;;;;;;;;;;4994268;28;20472;-66
2023/09/06 13:24:33;;;;;;;2.15;1.52;;;;;;;;;;4993417;28;20042;-66
2023/09/06 13:27:00;;;;;;;6.70;1.55;;;;;;;;;;4994603;28;20030;-65
2023/09/06 13:29:25;;;;;;;7.45;1.50;;;;;;;;;;4994789;28;20026;-64
2023/09/06 13:31:51;;;;;;;3.10;1.70;;;;;;;;;;4994654;28;20030;-65
2023/09/06 13:34:17;;;;;;;3.70;1.60;;;;;;;;;;4994595;28;20513;-65
2023/09/06 13:36:42;;;;;;;4.57;1.55;;;;;;;;;;4994543;28;20037;-65
2023/09/06 13:39:09;;;;;;;2.95;1.73;;;;;;;;;;4994646;28;20534;-64
2023/09/06 13:41:36;;;;;;;3.72;1.90;;;;;;;;;;4994472;28;20045;-66
2023/09/06 13:44:03;;;;;;;6.75;1.70;;;;;;;;;;4994572;28;20049;-64
2023/09/06 13:46:28;;;;;;;4.13;1.80;;;;;;;;;;4994620;28;20073;-64
2023/09/06 13:48:58;;;;;;;5.35;1.65;;;;;;;;;;4994538;28;20050;-64
2023/09/06 13:51:23;;;;;;;7.25;1.63;;;;;;;;;;4994166;28;20387;-64
2023/09/06 13:53:49;;;;;;;3.00;1.80;;;;;;;;;;4994554;28;20037;-63
2023/09/06 13:56:15;;;;;;;3.00;1.70;;;;;;;;;;4994058;28;20309;-64
2023/09/06 13:58:40;;;;;;;6.53;1.92;;;;;;;;;;4994172;28;20046;-67
2023/09/06 14:01:05;;;;;;;2.40;1.73;;;;;;;;;;4986027;28;20034;-66
2023/09/06 14:03:31;;;;;;;3.42;1.60;;;;;;;;;;4975010;28;20058;-65
2023/09/06 14:05:57;;;;;;;3.85;1.58;;;;;;;;;;4994493;28;20034;-65
2023/09/06 14:08:22;;;;;;;3.08;1.70;;;;;;;;;;4994023;28;20506;-66
2023/09/06 14:10:54;;;;;;;3.55;2.10;;;;;;;;;;4993686;28;20464;-64
2023/09/06 14:13:22;;;;;;;3.28;1.80;;;;;;;;;;4993961;28;20038;-66
2023/09/06 14:15:48;;;;;;;3.10;1.80;;;;;;;;;;4993867;28;20579;-65
2023/09/06 14:18:13;;;;;;;3.50;1.63;;;;;;;;;;4994017;28;20026;-66
2023/09/06 14:20:39;;;;;;;7.78;1.77;;;;;;;;;;4993427;28;20038;-66
2023/09/06 14:23:04;;;;;;;2.40;1.65;;;;;;;;;;4993867;28;20109;-65
2023/09/06 14:25:30;;;;;;;4.22;1.92;;;;;;;;;;4993605;28;20049;-65
2023/09/06 14:27:55;;;;;;;4.55;1.88;;;;;;;;;;4993844;28;20037;-66
2023/09/06 14:30:21;;;;;;;3.90;1.92;;;;;;;;;;4993716;28;20042;-66
2023/09/06 14:32:46;;;;;;;6.18;2.00;;;;;;;;;;4993232;28;20109;-66
2023/09/06 14:35:12;;;;;;;2.67;1.73;;;;;;;;;;4993127;28;20026;-66
2023/09/06 14:37:37;;;;;;;4.00;1.70;;;;;;;;;;4993298;28;20026;-66
2023/09/06 14:40:04;;;;;;;3.72;1.50;;;;;;;;;;4993108;28;20030;-66
2023/09/06 14:42:32;;;;;;;2.25;1.42;;;;;;;;;;4993249;28;20022;-66